Time;durP1;ratioP1;P1;durP2;ratioP2;P2;SDS_P1;SDS_P2;PMS_P1;PMS_P2;Temp;Humidity;BMP_temperature;BMP_pressure;BME280_temperature;BME280_humidity;BME280_pressure;Samples;Min_cycle;Max_cycle;Signal;HPM_P1;HPM_P2
2020/12/19 00:01:13;;;;;;;;;;;;;;;2.34;75.87;99229.61;1654814;84;24721;-86
2020/12/19 00:04:00;;;;;;;;;;;;;;;2.34;75.90;99225.30;1667270;85;20277;-87
2020/12/19 00:06:47;;;;;;;;;;;;;;;2.36;75.91;99232.55;1667416;84;25019;-87
2020/12/19 00:09:35;;;;;;;;;;;;;;;2.34;75.92;99230.91;1668985;85;22846;-85
2020/12/19 00:12:21;;;;;;;;;;;;;;;2.33;75.93;99221.45;1675135;85;26372;-86
2020/12/19 00:15:08;;;;;;;;;;;;;;;2.28;75.94;99227.17;1652480;86;25446;-86
2020/12/19 00:17:54;;;;;;;;;;;;;;;2.31;75.92;99228.38;1679998;84;20335;-86
2020/12/19 00:20:41;;;;;;;;;;;;;;;2.25;75.92;99225.49;1666485;84;24953;-88
2020/12/19 00:23:27;;;;;;;;;;;;;;;2.24;75.93;99216.05;1684185;84;22303;-88
2020/12/19 00:26:14;;;;;;;;;;;;;;;2.24;75.93;99210.03;1666658;85;27082;-87
2020/12/19 00:29:01;;;;;;;;;;;;;;;2.21;75.94;99211.41;1678736;84;24526;-87
2020/12/19 00:31:48;;;;;;;;;;;;;;;2.25;75.95;99217.75;1669440;84;21271;-87
2020/12/19 00:34:36;;;;;;;;;;;;;;;2.27;75.96;99216.43;1668448;85;24888;-87
2020/12/19 00:37:26;;;;;;;;;;;;;;;2.23;75.97;99211.80;1669834;84;22110;-88
2020/12/19 00:40:13;;;;;;;;;;;;;;;2.19;76.00;99206.70;1679018;85;26469;-87
2020/12/19 00:43:01;;;;;;;;;;;;;;;2.21;76.02;99207.53;1661735;85;24821;-87
2020/12/19 00:45:48;;;;;;;;;;;;;;;2.24;76.04;99213.46;1664546;85;20546;-87
2020/12/19 00:48:35;;;;;;;;;;;;;;;2.27;76.06;99212.11;1650705;86;24980;-87
2020/12/19 00:51:21;;;;;;;;;;;;;;;2.26;76.08;99205.69;1700575;83;22305;-87
2020/12/19 00:54:08;;;;;;;;;;;;;;;2.21;76.12;99204.52;1678020;85;26092;-88
2020/12/19 00:56:54;;;;;;;;;;;;;;;2.17;76.14;99214.95;1631949;86;24379;-88
2020/12/19 00:59:41;;;;;;;;;;;;;;;2.13;76.17;99212.05;1676451;84;20538;-88
2020/12/19 01:02:27;;;;;;;;;;;;;;;1.98;76.17;99214.08;1695953;83;24887;-87
2020/12/19 01:05:16;;;;;;;;;;;;;;;1.82;76.14;99212.73;1710477;83;22109;-87
2020/12/19 01:08:03;;;;;;;;;;;;;;;1.68;76.12;99210.47;1707484;82;26254;-87
2020/12/19 01:10:50;;;;;;;;;;;;;;;1.53;76.10;99207.34;1673390;84;24784;-88
2020/12/19 01:13:37;;;;;;;;;;;;;;;1.41;76.08;99204.61;1703984;84;20332;-88
2020/12/19 01:16:25;;;;;;;;;;;;;;;1.31;76.04;99199.67;1713924;82;24403;-87
2020/12/19 01:19:11;;;;;;;;;;;;;;;1.22;76.04;99201.54;1722669;83;22259;-88
2020/12/19 01:21:58;;;;;;;;;;;;;;;1.17;76.03;99204.66;1722684;83;26202;-88
2020/12/19 01:24:45;;;;;;;;;;;;;;;1.17;76.04;99206.38;1715190;83;26080;-87
2020/12/19 01:27:31;;;;;;;;;;;;;;;1.14;76.07;99215.04;1712555;82;20489;-87
2020/12/19 01:30:17;;;;;;;;;;;;;;;1.11;76.08;99213.80;1668812;84;25179;-87
2020/12/19 01:33:06;;;;;;;;;;;;;;;0.99;76.13;99208.86;1703977;83;22160;-87
2020/12/19 01:35:54;;;;;;;;;;;;;;;0.91;76.16;99211.19;1685496;84;26136;-86
2020/12/19 01:38:41;;;;;;;;;;;;;;;0.85;76.19;99213.44;1738494;81;24698;-87
2020/12/19 01:41:32;;;;;;;;;;;;;;;0.79;76.19;99213.55;1731401;81;20301;-88
2020/12/19 01:44:19;;;;;;;;;;;;;;;0.74;76.24;99211.50;1736127;81;24440;-87
2020/12/19 01:47:08;;;;;;;;;;;;;;;0.73;76.26;99203.35;1733516;81;22974;-87
2020/12/19 01:49:54;;;;;;;;;;;;;;;0.81;76.30;99198.48;1733021;81;26297;-87
2020/12/19 01:52:44;;;;;;;;;;;;;;;0.89;76.36;99199.61;1738941;82;24606;-87
2020/12/19 01:55:30;;;;;;;;;;;;;;;0.97;76.41;99191.31;1733478;81;20278;-87
2020/12/19 01:58:17;;;;;;;;;;;;;;;1.08;76.48;99193.69;1692440;83;24906;-87
2020/12/19 02:01:03;;;;;;;;;;;;;;;1.17;76.56;99197.36;1710984;82;22229;-87
2020/12/19 02:03:52;;;;;;;;;;;;;;;1.23;76.62;99198.52;1703666;82;27000;-87
2020/12/19 02:06:38;;;;;;;;;;;;;;;1.31;76.69;99199.67;1705081;82;24706;-87
2020/12/19 02:09:25;;;;;;;;;;;;;;;1.28;76.72;99197.14;1698391;83;20416;-87
2020/12/19 02:12:11;;;;;;;;;;;;;;;1.20;76.76;99196.84;1703023;82;24183;-87
2020/12/19 02:14:58;;;;;;;;;;;;;;;1.20;76.80;99200.70;1679916;85;22112;-87
2020/12/19 02:17:45;;;;;;;;;;;;;;;1.20;76.78;99196.02;1698001;82;26217;-87
2020/12/19 02:20:31;;;;;;;;;;;;;;;1.17;76.84;99195.63;1700762;83;23914;-86
2020/12/19 02:23:21;;;;;;;;;;;;;;;1.18;76.86;99190.89;1699364;82;20341;-85
2020/12/19 02:26:34;;;;;;;;;;;;;;;1.26;76.88;99187.70;1725004;83;20953;-87
2020/12/19 02:29:09;;;;;;;;;;;;;;;1.35;76.91;99187.97;1724137;83;23100;-86
2020/12/19 02:31:57;;;;;;;;;;;;;;;1.37;76.94;99180.17;1727813;83;26131;-87
2020/12/19 02:34:43;;;;;;;;;;;;;;;1.39;76.99;99179.72;1692747;83;25395;-86
2020/12/19 02:37:30;;;;;;;;;;;;;;;1.31;77.02;99191.47;1678484;84;20271;-87
2020/12/19 02:40:17;;;;;;;;;;;;;;;1.08;77.07;99186.80;1723382;83;24917;-87
2020/12/19 02:43:03;;;;;;;;;;;;;;;0.84;77.09;99191.13;1699839;83;22113;-87
2020/12/19 02:45:50;;;;;;;;;;;;;;;0.63;77.10;99182.07;1679636;85;26155;-87
2020/12/19 02:48:37;;;;;;;;;;;;;;;0.60;77.06;99183.86;1689385;83;24842;-87
2020/12/19 02:51:23;;;;;;;;;;;;;;;0.56;77.06;99176.61;1689123;84;20556;-88
2020/12/19 02:54:13;;;;;;;;;;;;;;;0.61;77.05;99171.38;1691338;84;24908;-88
2020/12/19 02:56:59;;;;;;;;;;;;;;;0.80;77.07;99162.44;1657211;84;22128;-88
2020/12/19 02:59:48;;;;;;;;;;;;;;;1.00;77.10;99152.59;1684165;84;26260;-88
2020/12/19 03:02:36;;;;;;;;;;;;;;;1.25;77.12;99141.34;1684422;84;24644;-88
2020/12/19 03:05:10;;;;;;;;;;;;;;;1.47;77.18;99139.16;1688337;84;20320;-88
2020/12/19 03:07:57;;;;;;;;;;;;;;;1.58;77.25;99130.27;1717584;81;24918;-88
2020/12/19 03:10:44;;;;;;;;;;;;;;;1.38;77.34;99133.74;1718340;81;22030;-88
2020/12/19 03:13:31;;;;;;;;;;;;;;;1.04;77.40;99136.17;1726433;81;26127;-88
2020/12/19 03:16:18;;;;;;;;;;;;;;;0.92;77.39;99128.72;1706921;84;24125;-88
2020/12/19 03:19:04;;;;;;;;;;;;;;;1.04;77.36;99126.30;1678123;84;20276;-88
2020/12/19 03:21:50;;;;;;;;;;;;;;;1.11;77.33;99118.42;1723115;81;24009;-88
2020/12/19 03:24:38;;;;;;;;;;;;;;;1.28;77.33;99119.36;1722162;83;21449;-87
2020/12/19 03:27:24;;;;;;;;;;;;;;;1.40;77.33;99114.38;1705540;83;26295;-87
2020/12/19 03:30:12;;;;;;;;;;;;;;;1.40;77.35;99119.53;1677528;85;24565;-87
2020/12/19 03:32:58;;;;;;;;;;;;;;;1.37;77.37;99119.14;1675823;83;20407;-87
2020/12/19 03:35:45;;;;;;;;;;;;;;;1.35;77.40;99121.37;1700445;83;24892;-88
2020/12/19 03:38:31;;;;;;;;;;;;;;;1.22;77.41;99124.64;1699419;83;22275;-87
2020/12/19 03:41:17;;;;;;;;;;;;;;;1.05;77.39;99123.70;1699679;83;26369;-88
2020/12/19 03:44:05;;;;;;;;;;;;;;;0.94;77.36;99125.65;1684969;83;25242;-87
2020/12/19 03:46:52;;;;;;;;;;;;;;;0.85;77.33;99129.70;1702863;82;20356;-87
2020/12/19 03:49:39;;;;;;;;;;;;;;;0.77;77.28;99131.56;1705810;82;24911;-87
2020/12/19 03:52:25;;;;;;;;;;;;;;;0.71;77.25;99129.95;1677205;85;22081;-87
2020/12/19 03:55:12;;;;;;;;;;;;;;;0.87;77.23;99124.09;1675110;85;26287;-88
2020/12/19 03:57:59;;;;;;;;;;;;;;;1.03;77.23;99122.91;1708264;83;24797;-87
2020/12/19 04:00:45;;;;;;;;;;;;;;;1.17;77.25;99116.16;1682629;83;20288;-87
2020/12/19 04:03:32;;;;;;;;;;;;;;;1.39;77.27;99114.81;1711594;83;25397;-87
2020/12/19 04:06:19;;;;;;;;;;;;;;;1.59;77.32;99118.22;1712004;83;22397;-87
2020/12/19 04:09:05;;;;;;;;;;;;;;;1.72;77.37;99114.48;1707411;83;26309;-87
2020/12/19 04:11:52;;;;;;;;;;;;;;;1.79;77.42;99112.18;1684072;83;24208;-87
2020/12/19 04:14:39;;;;;;;;;;;;;;;1.84;77.47;99110.77;1672109;85;20276;-87
2020/12/19 04:17:25;;;;;;;;;;;;;;;1.85;77.47;99108.60;1693760;83;25065;-87
2020/12/19 04:20:12;;;;;;;;;;;;;;;1.78;77.48;99107.89;1678163;84;22142;-87
2020/12/19 04:22:58;;;;;;;;;;;;;;;1.55;77.48;99114.88;1709674;83;26111;-87
2020/12/19 04:25:45;;;;;;;;;;;;;;;1.33;77.47;99111.08;1699057;83;24523;-87
2020/12/19 04:28:32;;;;;;;;;;;;;;;1.25;77.44;99100.92;1661361;84;21149;-87
2020/12/19 04:31:18;;;;;;;;;;;;;;;1.29;77.38;99097.86;1691178;84;24920;-86
2020/12/19 04:34:05;;;;;;;;;;;;;;;1.36;77.36;99093.42;1692012;84;22372;-86
2020/12/19 04:36:51;;;;;;;;;;;;;;;1.47;77.35;99092.30;1673264;85;26338;-86
2020/12/19 04:39:38;;;;;;;;;;;;;;;1.59;77.35;99090.70;1670629;85;24712;-86
2020/12/19 04:42:25;;;;;;;;;;;;;;;1.60;77.34;99089.82;1658415;86;20288;-86
2020/12/19 04:45:11;;;;;;;;;;;;;;;1.57;77.33;99087.33;1672517;85;24972;-86
2020/12/19 04:47:58;;;;;;;;;;;;;;;1.57;77.31;99089.05;1671890;85;22075;-86
2020/12/19 04:50:47;;;;;;;;;;;;;;;1.51;77.29;99082.30;1669797;85;26253;-86
2020/12/19 04:53:34;;;;;;;;;;;;;;;1.48;77.28;99093.97;1670073;85;24632;-87
2020/12/19 04:56:21;;;;;;;;;;;;;;;1.46;77.27;99094.46;1668404;85;20303;-87
2020/12/19 04:59:08;;;;;;;;;;;;;;;1.40;77.25;99084.72;1640923;85;26494;-87
2020/12/19 05:01:55;;;;;;;;;;;;;;;1.28;77.24;99079.39;1671005;85;22171;-87
2020/12/19 05:04:41;;;;;;;;;;;;;;;1.28;77.19;99075.97;1668455;84;26119;-87
2020/12/19 05:07:27;;;;;;;;;;;;;;;1.17;77.17;99067.19;1665862;85;24621;-87
2020/12/19 05:10:14;;;;;;;;;;;;;;;1.11;77.15;99067.31;1668890;85;20263;-87
2020/12/19 05:13:01;;;;;;;;;;;;;;;1.03;77.11;99074.38;1671438;85;24880;-87
2020/12/19 05:15:48;;;;;;;;;;;;;;;0.92;77.11;99073.75;1674710;85;21313;-87
2020/12/19 05:18:34;;;;;;;;;;;;;;;0.85;77.06;99069.16;1668284;85;26077;-87
2020/12/19 05:21:21;;;;;;;;;;;;;;;0.80;77.04;99067.12;1671358;84;26065;-87
2020/12/19 05:24:07;;;;;;;;;;;;;;;0.79;77.03;99066.27;1637331;85;20285;-87
2020/12/19 05:26:53;;;;;;;;;;;;;;;0.78;77.03;99059.42;1676939;83;24884;-87
2020/12/19 05:29:44;;;;;;;;;;;;;;;0.75;77.02;99050.91;1688322;84;22131;-88
2020/12/19 05:32:30;;;;;;;;;;;;;;;0.76;77.05;99059.88;1678826;84;26247;-88
2020/12/19 05:35:20;;;;;;;;;;;;;;;0.78;77.10;99065.86;1673457;84;25484;-88
2020/12/19 05:38:09;;;;;;;;;;;;;;;0.81;77.11;99064.96;1648630;84;20294;-88
2020/12/19 05:40:56;;;;;;;;;;;;;;;0.86;77.17;99065.71;1675034;84;25845;-87
2020/12/19 05:43:42;;;;;;;;;;;;;;;0.94;77.23;99068.96;1680003;84;22104;-87
2020/12/19 05:46:29;;;;;;;;;;;;;;;0.95;77.29;99069.38;1677374;84;26128;-87
2020/12/19 05:49:16;;;;;;;;;;;;;;;0.96;77.36;99071.52;1672753;84;24903;-88
2020/12/19 05:52:03;;;;;;;;;;;;;;;1.00;77.40;99076.56;1676759;84;20300;-87
2020/12/19 05:54:50;;;;;;;;;;;;;;;1.06;77.47;99072.58;1672714;84;25248;-87
2020/12/19 05:57:36;;;;;;;;;;;;;;;1.14;77.54;99077.14;1678649;84;22445;-87
2020/12/19 06:00:25;;;;;;;;;;;;;;;1.26;77.60;99079.42;1676961;84;26094;-87
2020/12/19 06:03:11;;;;;;;;;;;;;;;1.31;77.67;99072.86;1654747;84;23860;-87
2020/12/19 06:05:57;;;;;;;;;;;;;;;1.30;77.73;99072.92;1679345;84;20555;-88
2020/12/19 06:08:44;;;;;;;;;;;;;;;1.37;77.80;99073.17;1687421;84;24921;-88
2020/12/19 06:11:32;;;;;;;;;;;;;;;1.39;77.84;99068.84;1675689;84;22458;-88
2020/12/19 06:14:18;;;;;;;;;;;;;;;1.41;77.88;99070.95;1680363;84;26129;-87
2020/12/19 06:17:05;;;;;;;;;;;;;;;1.46;77.92;99067.38;1675630;84;25300;-88
2020/12/19 06:19:55;;;;;;;;;;;;;;;1.51;77.97;99074.57;1677412;84;20401;-87
2020/12/19 06:22:41;;;;;;;;;;;;;;;1.51;78.02;99069.85;1678703;84;25747;-86
2020/12/19 06:25:30;;;;;;;;;;;;;;;1.51;78.06;99077.59;1677737;84;22224;-86
2020/12/19 06:28:20;;;;;;;;;;;;;;;1.57;78.09;99077.01;1678549;84;27049;-87
2020/12/19 06:31:07;;;;;;;;;;;;;;;1.61;78.12;99077.77;1693662;83;24739;-86
2020/12/19 06:33:53;;;;;;;;;;;;;;;1.60;78.15;99078.22;1683909;84;20279;-86
2020/12/19 06:36:39;;;;;;;;;;;;;;;1.59;78.18;99082.11;1685493;83;25092;-87
2020/12/19 06:39:26;;;;;;;;;;;;;;;1.58;78.22;99083.84;1689184;83;22212;-87
2020/12/19 06:42:13;;;;;;;;;;;;;;;1.61;78.25;99086.36;1689309;84;26142;-88
2020/12/19 06:44:59;;;;;;;;;;;;;;;1.61;78.27;99090.67;1684168;84;24597;-87
2020/12/19 06:47:46;;;;;;;;;;;;;;;1.59;78.30;99096.30;1689030;83;20525;-86
2020/12/19 06:50:32;;;;;;;;;;;;;;;1.58;78.31;99103.66;1686223;83;25083;-86
2020/12/19 06:53:19;;;;;;;;;;;;;;;1.56;78.33;99106.70;1679808;84;22434;-86
2020/12/19 06:56:06;;;;;;;;;;;;;;;1.58;78.35;99108.34;1680832;84;26210;-86
2020/12/19 06:58:57;;;;;;;;;;;;;;;1.60;78.38;99109.61;1661909;84;24585;-87
2020/12/19 07:01:43;;;;;;;;;;;;;;;1.66;78.41;99104.30;1689469;84;20385;-87
2020/12/19 07:04:31;;;;;;;;;;;;;;;1.70;78.43;99109.80;1682572;84;24253;-87
2020/12/19 07:07:17;;;;;;;;;;;;;;;1.65;78.49;99109.91;1684581;83;22161;-87
2020/12/19 07:10:06;;;;;;;;;;;;;;;1.61;78.52;99106.15;1686830;83;26168;-87
2020/12/19 07:12:53;;;;;;;;;;;;;;;1.57;78.54;99109.69;1686516;84;24710;-88
2020/12/19 07:15:44;;;;;;;;;;;;;;;1.53;78.57;99113.20;1666980;84;20346;-87
2020/12/19 07:18:31;;;;;;;;;;;;;;;1.50;78.57;99114.57;1691567;83;24920;-87
2020/12/19 07:21:19;;;;;;;;;;;;;;;1.49;78.59;99114.16;1687578;83;22471;-87
2020/12/19 07:24:05;;;;;;;;;;;;;;;1.50;78.62;99115.42;1658929;84;25817;-87
2020/12/19 07:26:52;;;;;;;;;;;;;;;1.50;78.62;99113.28;1709347;83;24631;-87
2020/12/19 07:29:39;;;;;;;;;;;;;;;1.55;78.68;99116.60;1686811;84;20389;-86
2020/12/19 07:32:26;;;;;;;;;;;;;;;1.60;78.69;99107.88;1652402;84;24754;-87
2020/12/19 07:35:15;;;;;;;;;;;;;;;1.65;78.73;99110.34;1708274;82;22151;-87
2020/12/19 07:38:02;;;;;;;;;;;;;;;1.69;78.78;99112.81;1714623;83;26699;-87
2020/12/19 07:40:48;;;;;;;;;;;;;;;1.73;78.84;99126.51;1699322;84;24626;-87
2020/12/19 07:43:46;;;;;;;;;;;;;;;1.75;78.89;99123.43;1684675;83;20376;-86
2020/12/19 07:46:35;;;;;;;;;;;;;;;1.61;78.94;99123.77;1699305;84;25057;-88
2020/12/19 07:49:21;;;;;;;;;;;;;;;1.41;78.97;99124.66;1671857;84;22172;-88
2020/12/19 07:52:07;;;;;;;;;;;;;;;1.25;79.01;99126.70;1657078;83;26092;-86
2020/12/19 07:54:56;;;;;;;;;;;;;;;1.12;78.97;99120.12;1678012;84;24611;-86
2020/12/19 07:57:43;;;;;;;;;;;;;;;1.01;78.97;99128.52;1673442;85;20616;-87
2020/12/19 08:00:30;;;;;;;;;;;;;;;0.97;78.96;99133.77;1679911;83;24874;-87
2020/12/19 08:03:16;;;;;;;;;;;;;;;0.95;78.96;99131.66;1672870;85;22975;-87
2020/12/19 08:06:03;;;;;;;;;;;;;;;0.99;78.98;99125.55;1670739;85;26119;-87
2020/12/19 08:08:51;;;;;;;;;;;;;;;1.05;79.01;99121.12;1668166;85;24588;-87
2020/12/19 08:11:38;;;;;;;;;;;;;;;1.09;79.04;99121.46;1733397;82;20341;-87
2020/12/19 08:14:25;;;;;;;;;;;;;;;1.05;79.12;99117.26;1707277;82;24891;-87
2020/12/19 08:17:13;;;;;;;;;;;;;;;1.08;79.13;99117.65;1716243;83;22125;-88
2020/12/19 08:20:00;;;;;;;;;;;;;;;1.19;79.17;99116.55;1708408;83;27139;-87
2020/12/19 08:22:46;;;;;;;;;;;;;;;1.26;79.22;99110.36;1714993;83;25472;-87
2020/12/19 08:25:33;;;;;;;;;;;;;;;1.30;79.25;99110.31;1721535;82;20540;-85
2020/12/19 08:28:20;;;;;;;;;;;;;;;1.35;79.32;99113.62;1714883;83;24876;-86
2020/12/19 08:31:10;;;;;;;;;;;;;;;1.44;79.35;99113.42;1733412;81;22091;-86
2020/12/19 08:33:58;;;;;;;;;;;;;;;1.55;79.42;99111.45;1732208;82;26265;-86
2020/12/19 08:36:45;;;;;;;;;;;;;;;1.63;79.45;99113.42;1664538;84;25388;-87
2020/12/19 08:39:32;;;;;;;;;;;;;;;1.61;79.50;99118.61;1685731;83;20348;-86
2020/12/19 08:42:19;;;;;;;;;;;;;;;1.61;79.54;99122.91;1688599;83;25919;-87
2020/12/19 08:45:06;;;;;;;;;;;;;;;1.60;79.57;99122.06;1691655;84;22156;-87
2020/12/19 08:47:53;;;;;;;;;;;;;;;1.54;79.60;99118.77;1701382;83;26993;-88
2020/12/19 08:50:40;;;;;;;;;;;;;;;1.44;79.62;99127.16;1696432;83;25476;-87
2020/12/19 08:53:27;;;;;;;;;;;;;;;1.38;79.62;99126.44;1695957;84;20289;-87
2020/12/19 08:56:13;;;;;;;;;;;;;;;1.34;79.62;99124.82;1696216;84;25156;-87
2020/12/19 08:59:00;;;;;;;;;;;;;;;1.34;79.61;99124.38;1724072;82;23222;-87
2020/12/19 09:01:47;;;;;;;;;;;;;;;1.35;79.62;99114.48;1704619;83;26321;-87
2020/12/19 09:04:35;;;;;;;;;;;;;;;1.32;79.64;99118.40;1733279;82;25497;-88
2020/12/19 09:07:23;;;;;;;;;;;;;;;1.35;79.64;99112.34;1733618;81;20326;-88
2020/12/19 09:10:11;;;;;;;;;;;;;;;1.37;79.68;99114.42;1693131;81;24696;-87
2020/12/19 09:12:59;;;;;;;;;;;;;;;1.38;79.69;99118.27;1734103;81;22228;-87
2020/12/19 09:15:46;;;;;;;;;;;;;;;1.37;79.72;99115.28;1702538;81;26316;-87
2020/12/19 09:18:32;;;;;;;;;;;;;;;1.37;79.76;99106.69;1727835;82;25521;-87
2020/12/19 09:21:19;;;;;;;;;;;;;;;1.38;79.78;99110.97;1710491;82;20287;-88
2020/12/19 09:24:05;;;;;;;;;;;;;;;1.40;79.79;99105.35;1740806;81;24990;-87
2020/12/19 09:26:52;;;;;;;;;;;;;;;1.37;79.84;99106.25;1732911;81;22105;-88
2020/12/19 09:29:39;;;;;;;;;;;;;;;1.37;79.86;99099.80;1672972;84;27015;-87
2020/12/19 09:32:26;;;;;;;;;;;;;;;1.35;79.88;99100.30;1631792;86;24634;-87
2020/12/19 09:35:12;;;;;;;;;;;;;;;1.34;79.90;99096.45;1654854;86;20362;-87
2020/12/19 09:37:59;;;;;;;;;;;;;;;1.32;79.92;99093.05;1686920;82;25181;-87
2020/12/19 09:40:47;;;;;;;;;;;;;;;1.33;79.93;99094.75;1663213;84;22071;-87
2020/12/19 09:43:35;;;;;;;;;;;;;;;1.36;79.97;99097.28;1665030;85;26132;-87
2020/12/19 09:46:22;;;;;;;;;;;;;;;1.37;80.00;99093.36;1679495;84;25106;-87
2020/12/19 09:49:09;;;;;;;;;;;;;;;1.37;80.02;99088.20;1666477;85;20378;-86
2020/12/19 09:51:56;;;;;;;;;;;;;;;1.38;80.07;99082.17;1664807;84;25009;-85
2020/12/19 09:54:42;;;;;;;;;;;;;;;1.38;80.09;99078.30;1662032;84;22194;-86
2020/12/19 09:57:30;;;;;;;;;;;;;;;1.38;80.11;99078.73;1661485;85;26153;-86
2020/12/19 10:00:19;;;;;;;;;;;;;;;1.39;80.15;99079.16;1673555;85;24629;-86
2020/12/19 10:03:08;;;;;;;;;;;;;;;1.40;80.19;99076.98;1672464;85;20303;-86
2020/12/19 10:05:54;;;;;;;;;;;;;;;1.42;80.20;99073.47;1670544;85;25013;-86
2020/12/19 10:08:43;;;;;;;;;;;;;;;1.46;80.22;99080.72;1673543;84;22122;-87
2020/12/19 10:11:30;;;;;;;;;;;;;;;1.45;80.28;99076.00;1701047;83;26413;-87
2020/12/19 10:14:17;;;;;;;;;;;;;;;1.49;80.29;99071.17;1716751;81;24591;-86
2020/12/19 10:17:04;;;;;;;;;;;;;;;1.54;80.32;99071.05;1723316;81;20289;-86
2020/12/19 10:19:51;;;;;;;;;;;;;;;1.58;80.34;99060.62;1716652;81;24971;-87
2020/12/19 10:22:38;;;;;;;;;;;;;;;1.62;80.38;99065.29;1719514;81;22162;-86
2020/12/19 10:25:25;;;;;;;;;;;;;;;1.68;80.42;99057.41;1717236;83;26316;-86
2020/12/19 10:28:12;;;;;;;;;;;;;;;1.74;80.45;99052.10;1716716;83;24619;-86
2020/12/19 10:30:59;;;;;;;;;;;;;;;1.81;80.48;99054.06;1683024;83;20494;-86
2020/12/19 10:33:47;;;;;;;;;;;;;;;1.84;80.51;99053.56;1714860;83;25144;-86
2020/12/19 10:36:34;;;;;;;;;;;;;;;1.89;80.54;99045.70;1719778;82;22117;-86
2020/12/19 10:39:20;;;;;;;;;;;;;;;1.92;80.58;99046.46;1728268;82;26181;-86
2020/12/19 10:42:07;;;;;;;;;;;;;;;1.98;80.60;99041.14;1712472;83;24636;-87
2020/12/19 10:44:53;;;;;;;;;;;;;;;2.05;80.61;99037.53;1719110;83;20240;-87
2020/12/19 10:47:40;;;;;;;;;;;;;;;2.10;80.65;99036.96;1693021;81;25681;-87
2020/12/19 10:50:27;;;;;;;;;;;;;;;2.16;80.68;99032.08;1718208;83;22079;-87
2020/12/19 10:53:15;;;;;;;;;;;;;;;2.19;80.69;99035.86;1713680;83;27298;-86
2020/12/19 10:56:02;;;;;;;;;;;;;;;2.23;80.73;99028.90;1690193;83;24630;-87
2020/12/19 10:58:52;;;;;;;;;;;;;;;2.26;80.73;99028.80;1698359;83;20391;-87
2020/12/19 11:01:40;;;;;;;;;;;;;;;2.34;80.75;99028.16;1720796;83;25847;-86
2020/12/19 11:04:27;;;;;;;;;;;;;;;2.41;80.76;99020.19;1715973;83;22164;-86
2020/12/19 11:07:13;;;;;;;;;;;;;;;2.44;80.79;99025.73;1721487;81;26201;-87
2020/12/19 11:10:00;;;;;;;;;;;;;;;2.46;80.82;99016.18;1680250;83;24601;-87
2020/12/19 11:12:47;;;;;;;;;;;;;;;2.53;80.83;99020.30;1720023;81;20251;-86
2020/12/19 11:15:34;;;;;;;;;;;;;;;2.57;80.85;99021.89;1632638;85;24533;-87
2020/12/19 11:18:20;;;;;;;;;;;;;;;2.62;80.88;99016.63;1645071;85;22195;-87
2020/12/19 11:21:07;;;;;;;;;;;;;;;2.60;80.91;99008.91;1644775;86;26203;-87
2020/12/19 11:23:54;;;;;;;;;;;;;;;2.58;80.91;99013.70;1643810;86;24703;-87
2020/12/19 11:26:40;;;;;;;;;;;;;;;2.63;80.91;99008.80;1637238;86;20555;-87
2020/12/19 11:29:31;;;;;;;;;;;;;;;2.64;80.92;99001.90;1642574;85;24982;-87
2020/12/19 11:32:19;;;;;;;;;;;;;;;2.62;80.93;99007.11;1633397;85;22692;-87
2020/12/19 11:35:06;;;;;;;;;;;;;;;2.62;80.93;99005.81;1622590;86;25721;-87
2020/12/19 11:37:53;;;;;;;;;;;;;;;2.62;80.92;99004.52;1652853;86;25552;-87
2020/12/19 11:40:41;;;;;;;;;;;;;;;2.62;80.92;99005.81;1688863;83;20964;-88
2020/12/19 11:43:28;;;;;;;;;;;;;;;2.62;80.92;99001.94;1674514;83;25976;-88
2020/12/19 11:46:14;;;;;;;;;;;;;;;2.64;80.92;99002.75;1672068;85;22306;-87
2020/12/19 11:49:00;;;;;;;;;;;;;;;2.64;80.94;99000.16;1694071;83;26338;-88
2020/12/19 11:51:47;;;;;;;;;;;;;;;2.57;80.95;98999.08;1673255;85;24796;-88
2020/12/19 11:54:38;;;;;;;;;;;;;;;2.46;80.95;98996.81;1650133;85;20533;-88
2020/12/19 11:57:24;;;;;;;;;;;;;;;2.38;80.96;99000.06;1640233;85;24951;-88
2020/12/19 12:00:15;;;;;;;;;;;;;;;2.28;80.94;98997.34;1641654;86;22225;-88
2020/12/19 12:03:02;;;;;;;;;;;;;;;2.21;80.95;99007.42;1617512;86;26212;-87
2020/12/19 12:05:51;;;;;;;;;;;;;;;2.13;80.94;99005.03;1677990;85;24524;-88
2020/12/19 12:08:41;;;;;;;;;;;;;;;2.04;80.93;99004.00;1645081;85;20437;-88
2020/12/19 12:11:28;;;;;;;;;;;;;;;1.98;80.93;99001.14;1664506;83;24881;-87
2020/12/19 12:14:14;;;;;;;;;;;;;;;1.99;80.91;99005.42;1693639;83;23035;-87
2020/12/19 12:17:01;;;;;;;;;;;;;;;2.01;80.91;99009.27;1725796;83;26217;-88
2020/12/19 12:19:47;;;;;;;;;;;;;;;2.01;80.93;99013.98;1721406;83;24925;-88
2020/12/19 12:22:33;;;;;;;;;;;;;;;2.00;80.93;99008.41;1724593;81;20271;-88
2020/12/19 12:25:20;;;;;;;;;;;;;;;2.01;80.98;99013.98;1719160;83;24920;-88
2020/12/19 12:28:07;;;;;;;;;;;;;;;1.96;80.97;99013.26;1716165;81;23029;-88
2020/12/19 12:30:54;;;;;;;;;;;;;;;1.95;80.99;99012.84;1741990;80;25885;-89
2020/12/19 12:33:40;;;;;;;;;;;;;;;1.89;81.01;99004.41;1747065;81;24582;-88
2020/12/19 12:36:31;;;;;;;;;;;;;;;1.85;81.03;99010.11;1750916;80;20409;-87
2020/12/19 12:39:17;;;;;;;;;;;;;;;1.80;81.04;99010.64;1745568;81;24922;-88
2020/12/19 12:42:06;;;;;;;;;;;;;;;1.76;81.04;99014.62;1754254;81;22147;-88
2020/12/19 12:44:53;;;;;;;;;;;;;;;1.69;81.06;99015.25;1752792;80;26212;-88
2020/12/19 12:47:41;;;;;;;;;;;;;;;1.67;81.07;99013.14;1754399;81;24543;-87
2020/12/19 12:50:28;;;;;;;;;;;;;;;1.67;81.07;99006.69;1751772;80;20301;-89
2020/12/19 12:53:15;;;;;;;;;;;;;;;1.68;81.10;99007.95;1715182;80;25001;-87
2020/12/19 12:56:06;;;;;;;;;;;;;;;1.72;81.12;99007.42;1749660;80;22109;-88
2020/12/19 12:58:53;;;;;;;;;;;;;;;1.77;81.16;99008.15;1742758;81;25994;-89
2020/12/19 13:01:40;;;;;;;;;;;;;;;1.79;81.16;99001.23;1753347;81;24623;-89
2020/12/19 13:04:27;;;;;;;;;;;;;;;1.80;81.21;99009.34;1746905;81;20188;-87
2020/12/19 13:07:15;;;;;;;;;;;;;;;1.82;81.22;99011.45;1750377;81;25102;-87
2020/12/19 13:10:03;;;;;;;;;;;;;;;1.81;81.27;99007.62;1752133;81;22911;-88
2020/12/19 13:12:54;;;;;;;;;;;;;;;1.75;81.28;99016.36;1745495;81;27127;-89
2020/12/19 13:15:41;;;;;;;;;;;;;;;1.66;81.32;99014.02;1745740;80;24599;-88
2020/12/19 13:18:27;;;;;;;;;;;;;;;1.61;81.33;99014.14;1744492;82;20286;-88
2020/12/19 13:21:14;;;;;;;;;;;;;;;1.53;81.33;99019.91;1743364;80;24216;-89
2020/12/19 13:24:01;;;;;;;;;;;;;;;1.52;81.33;99018.68;1741867;82;22273;-88
2020/12/19 13:26:48;;;;;;;;;;;;;;;1.47;81.34;99023.95;1704575;82;26119;-88
2020/12/19 13:29:35;;;;;;;;;;;;;;;1.38;81.38;99020.72;1740669;82;25350;-88
2020/12/19 13:32:22;;;;;;;;;;;;;;;1.35;81.36;99016.94;1682200;83;20553;-88
2020/12/19 13:35:09;;;;;;;;;;;;;;;1.37;81.37;99025.47;1712796;83;24987;-89
2020/12/19 13:37:56;;;;;;;;;;;;;;;1.45;81.37;99018.41;1712647;83;22233;-89
2020/12/19 13:40:43;;;;;;;;;;;;;;;1.44;81.39;99018.85;1695173;82;26123;-89
2020/12/19 13:43:30;;;;;;;;;;;;;;;1.49;81.43;99025.19;1728086;82;24756;-88
2020/12/19 13:46:17;;;;;;;;;;;;;;;1.55;81.45;99013.44;1675767;83;20293;-88
2020/12/19 13:49:03;;;;;;;;;;;;;;;1.64;81.44;99012.76;1719607;82;25065;-89
2020/12/19 13:51:52;;;;;;;;;;;;;;;1.75;81.50;99018.09;1676210;83;20284;-89
2020/12/19 13:54:41;;;;;;;;;;;;;;;1.88;81.50;99015.17;1717272;82;27037;-89
2020/12/19 13:57:29;;;;;;;;;;;;;;;1.90;81.54;99012.56;1704649;83;24633;-88
2020/12/19 14:00:16;;;;;;;;;;;;;;;1.90;81.57;99015.99;1718892;82;20274;-88
2020/12/19 14:03:03;;;;;;;;;;;;;;;1.92;81.60;99016.78;1705994;82;24450;-89
2020/12/19 14:05:51;;;;;;;;;;;;;;;1.83;81.62;99022.62;1706594;83;21337;-88
2020/12/19 14:08:38;;;;;;;;;;;;;;;1.68;81.63;99024.72;1687975;82;25872;-88
2020/12/19 14:11:25;;;;;;;;;;;;;;;1.58;81.62;99028.85;1695755;83;24687;-88
2020/12/19 14:14:11;;;;;;;;;;;;;;;1.44;81.59;99025.30;1674237;84;20340;-88
2020/12/19 14:17:01;;;;;;;;;;;;;;;1.34;81.57;99025.11;1623726;85;24546;-89
2020/12/19 14:19:48;;;;;;;;;;;;;;;1.32;81.53;99026.87;1651707;84;21120;-89
2020/12/19 14:22:35;;;;;;;;;;;;;;;1.26;81.50;99033.02;1653186;85;27022;-87
2020/12/19 14:25:22;;;;;;;;;;;;;;;1.22;81.48;99030.55;1592750;85;25072;-87
2020/12/19 14:28:10;;;;;;;;;;;;;;;1.23;81.47;99024.52;1677259;84;20561;-87
2020/12/19 14:30:57;;;;;;;;;;;;;;;1.38;81.43;99029.30;1629595;85;25123;-87
2020/12/19 14:33:43;;;;;;;;;;;;;;;1.47;81.43;99028.27;1652640;85;22375;-88
2020/12/19 14:36:31;;;;;;;;;;;;;;;1.61;81.41;99035.21;1669459;84;26092;-87
2020/12/19 14:39:17;;;;;;;;;;;;;;;1.70;81.42;99034.98;1650411;85;24642;-86
2020/12/19 14:42:04;;;;;;;;;;;;;;;1.72;81.42;99038.38;1661038;84;20427;-87